Time;durP1;ratioP1;P1;durP2;ratioP2;P2;SDS_P1;SDS_P2;PMS_P1;PMS_P2;Temp;Humidity;BMP_temperature;BMP_pressure;BME280_temperature;BME280_humidity;BME280_pressure;Samples;Min_cycle;Max_cycle;Signal;HPM_P1;HPM_P2
2022/06/30 00:00:29;;;;;;;6.27;5.77;;;;;;;17.57;98.82;101551.94;4990268;28;20488;-45
2022/06/30 00:02:57;;;;;;;5.97;5.47;;;;;;;17.54;99.20;101559.63;4991015;28;20438;-45
2022/06/30 00:05:26;;;;;;;6.03;5.50;;;;;;;17.54;99.72;101551.53;4990923;28;20437;-49
2022/06/30 00:07:54;;;;;;;6.70;6.03;;;;;;;17.52;99.78;101542.84;4990804;28;20454;-49
2022/06/30 00:10:22;;;;;;;6.93;5.60;;;;;;;17.51;99.84;101543.88;4990103;28;20464;-49
2022/06/30 00:12:49;;;;;;;5.80;5.20;;;;;;;17.49;99.93;101543.28;4990774;28;20433;-47
2022/06/30 00:15:17;;;;;;;9.80;5.50;;;;;;;17.48;100.00;101542.47;4990790;28;20440;-48
2022/06/30 00:17:44;;;;;;;7.33;5.53;;;;;;;17.47;99.97;101531.91;4990720;28;20472;-46
2022/06/30 00:20:12;;;;;;;6.90;5.83;;;;;;;17.45;99.90;101534.81;4990192;28;20538;-50
2022/06/30 00:22:41;;;;;;;5.93;5.30;;;;;;;17.44;100.00;101532.34;4990651;28;20434;-46
2022/06/30 00:25:09;;;;;;;6.60;5.90;;;;;;;17.43;100.00;101536.91;4990690;28;20442;-45
2022/06/30 00:27:37;;;;;;;5.50;5.20;;;;;;;17.41;100.00;101536.28;4990575;28;20461;-45
2022/06/30 00:30:05;;;;;;;6.50;5.67;;;;;;;17.40;100.00;101537.38;4990350;28;20469;-46
2022/06/30 00:32:33;;;;;;;7.50;6.80;;;;;;;17.40;100.00;101545.44;4980561;28;20430;-45
2022/06/30 00:35:01;;;;;;;6.63;6.23;;;;;;;17.38;100.00;101536.75;4979235;28;20453;-46
2022/06/30 00:37:29;;;;;;;6.87;6.30;;;;;;;17.37;100.00;101548.59;4989935;28;20538;-48
2022/06/30 00:39:57;;;;;;;7.30;5.93;;;;;;;17.36;100.00;101548.78;4989920;28;20469;-46
2022/06/30 00:42:25;;;;;;;5.73;5.23;;;;;;;17.35;100.00;101549.88;4990540;28;20426;-45
2022/06/30 00:44:53;;;;;;;6.30;5.90;;;;;;;17.33;100.00;101547.38;4990668;28;20440;-47
2022/06/30 00:47:20;;;;;;;7.23;6.53;;;;;;;17.32;100.00;101553.84;4990471;28;20450;-45
2022/06/30 00:49:48;;;;;;;6.50;6.00;;;;;;;17.31;100.00;101546.78;4990051;28;20804;-47
2022/06/30 00:52:16;;;;;;;10.23;6.43;;;;;;;17.29;100.00;101558.84;4990205;28;20989;-45
2022/06/30 00:54:46;;;;;;;6.93;6.37;;;;;;;17.27;100.00;101559.03;4990487;28;20569;-47
2022/06/30 00:57:15;;;;;;;7.03;6.30;;;;;;;17.26;100.00;101559.28;4990644;28;20473;-47
2022/06/30 00:59:46;;;;;;;7.07;6.57;;;;;;;17.23;100.00;101559.72;4990183;28;21026;-45
2022/06/30 01:02:14;;;;;;;8.23;6.50;;;;;;;17.20;100.00;101561.00;4990418;28;20441;-49
2022/06/30 01:04:42;;;;;;;7.20;6.50;;;;;;;17.20;100.00;101549.38;4990486;28;20935;-46
2022/06/30 01:07:11;;;;;;;7.27;6.80;;;;;;;17.18;100.00;101546.88;4990152;28;20450;-49
2022/06/30 01:12:43;;;;;;;7.23;6.60;;;;;;;17.14;100.00;101562.66;4990124;28;20469;-50
2022/06/30 01:15:13;;;;;;;9.43;7.60;;;;;;;17.13;100.00;101557.50;4990405;28;20807;-49
2022/06/30 01:17:41;;;;;;;8.30;7.50;;;;;;;17.12;100.00;101561.25;4992445;28;20476;-47
2022/06/30 01:20:10;;;;;;;8.03;7.33;;;;;;;17.10;100.00;101555.25;4993218;28;20828;-45
2022/06/30 01:22:41;;;;;;;10.00;7.30;;;;;;;17.09;100.00;101543.66;4993598;28;20961;-45
2022/06/30 01:25:10;;;;;;;12.93;7.83;;;;;;;17.10;100.00;101547.16;4993637;28;20444;-45
2022/06/30 01:27:38;;;;;;;7.80;7.30;;;;;;;17.08;100.00;101530.41;4993574;28;20448;-46
2022/06/30 01:30:06;;;;;;;8.20;7.40;;;;;;;17.07;100.00;101539.53;4993061;28;20835;-47
2022/06/30 01:32:34;;;;;;;7.13;6.53;;;;;;;17.04;100.00;101535.41;4986087;28;20434;-46
2022/06/30 01:35:02;;;;;;;7.07;6.30;;;;;;;17.04;100.00;101534.56;4985360;28;20434;-48
2022/06/30 01:37:46;;;;;;;7.37;6.67;;;;;;;17.01;100.00;101525.06;4993548;28;20461;-52
2022/06/30 01:40:14;;;;;;;9.47;7.87;;;;;;;17.00;100.00;101531.47;4992765;28;20476;-48
2022/06/30 01:42:42;;;;;;;7.60;6.90;;;;;;;16.98;100.00;101533.59;4993425;28;20440;-45
2022/06/30 01:45:11;;;;;;;8.53;7.80;;;;;;;16.97;100.00;101534.63;4993422;28;20785;-47
2022/06/30 01:47:38;;;;;;;8.10;7.23;;;;;;;16.97;100.00;101536.47;4993319;28;20457;-47
2022/06/30 01:50:10;;;;;;;8.10;7.30;;;;;;;16.95;100.00;101533.19;4992825;28;20466;-47
2022/06/30 01:52:37;;;;;;;7.87;7.30;;;;;;;16.95;100.00;101525.94;4993176;28;20434;-45
2022/06/30 01:55:07;;;;;;;8.83;7.87;;;;;;;16.95;99.90;101534.03;4992969;28;20430;-45
2022/06/30 01:57:36;;;;;;;11.23;8.10;;;;;;;16.96;99.47;101521.38;4993240;28;20466;-45
2022/06/30 02:00:05;;;;;;;8.43;7.73;;;;;;;16.95;99.67;101512.47;4992627;28;20462;-49
2022/06/30 02:02:33;;;;;;;8.30;7.53;;;;;;;16.95;99.91;101512.47;4993038;28;20434;-48
2022/06/30 02:05:01;;;;;;;8.63;7.83;;;;;;;16.96;100.00;101507.91;4992964;28;20444;-45
2022/06/30 02:07:29;;;;;;;9.40;8.50;;;;;;;16.95;99.95;101509.78;4992699;28;20464;-45
2022/06/30 02:09:56;;;;;;;8.73;7.87;;;;;;;16.94;99.41;101504.59;4992695;28;20458;-47
2022/06/30 02:15:11;;;;;;;13.17;8.80;;;;;;;16.94;98.94;101485.72;4992886;28;20434;-44
2022/06/30 02:17:39;;;;;;;9.57;8.77;;;;;;;16.95;99.27;101487.38;4992735;28;20472;-45
2022/06/30 02:20:09;;;;;;;12.33;9.10;;;;;;;16.96;99.07;101492.56;4992106;28;20474;-48
2022/06/30 02:22:37;;;;;;;9.13;8.40;;;;;;;16.97;98.91;101504.97;4992807;28;20823;-47
2022/06/30 02:25:06;;;;;;;9.17;8.27;;;;;;;16.96;99.38;101500.66;4992763;28;20438;-45
2022/06/30 02:27:36;;;;;;;8.53;7.80;;;;;;;16.98;99.19;101498.56;4992222;28;20461;-47
2022/06/30 02:30:06;;;;;;;8.20;7.63;;;;;;;16.99;99.18;101499.38;4991485;28;20468;-49
2022/06/30 02:32:33;;;;;;;10.03;8.90;;;;;;;16.99;99.27;101499.38;4984793;28;20436;-46
2022/06/30 02:35:01;;;;;;;8.70;7.80;;;;;;;16.99;100.00;101505.56;4984171;28;20928;-50
2022/06/30 02:37:29;;;;;;;9.40;8.40;;;;;;;16.98;100.00;101501.25;4992240;28;20987;-50
2022/06/30 02:39:57;;;;;;;8.73;7.93;;;;;;;16.98;100.00;101503.13;4991903;28;20457;-47
2022/06/30 02:42:24;;;;;;;9.23;8.37;;;;;;;16.98;99.84;101503.94;4992172;28;20438;-49
2022/06/30 02:44:53;;;;;;;9.60;8.13;;;;;;;16.97;100.00;101496.91;4992292;28;20824;-47
2022/06/30 02:47:21;;;;;;;12.03;8.33;;;;;;;16.99;100.00;101494.78;4992059;28;20458;-48
2022/06/30 02:49:48;;;;;;;10.20;8.67;;;;;;;16.98;100.00;101493.16;4991914;28;20554;-44
2022/06/30 02:52:16;;;;;;;8.70;8.00;;;;;;;17.00;100.00;101492.94;4992130;28;20434;-43
2022/06/30 02:54:44;;;;;;;9.40;8.70;;;;;;;17.00;100.00;101484.84;4992160;28;20541;-48
2022/06/30 02:57:12;;;;;;;8.80;8.10;;;;;;;17.01;100.00;101487.34;4992101;28;20481;-43
2022/06/30 02:59:39;;;;;;;8.30;7.60;;;;;;;17.06;100.00;101483.97;4991406;28;20815;-50
2022/06/30 03:02:08;;;;;;;8.70;7.93;;;;;;;17.09;100.00;101494.31;4991700;28;20987;-46
2022/06/30 03:04:36;;;;;;;8.33;7.73;;;;;;;17.12;100.00;101488.47;4991992;28;20491;-46
2022/06/30 03:07:04;;;;;;;8.50;7.90;;;;;;;17.15;100.00;101493.41;4991880;28;20460;-45
2022/06/30 03:09:32;;;;;;;8.53;7.70;;;;;;;17.17;100.00;101484.06;4991521;28;20437;-45
2022/06/30 03:11:59;;;;;;;11.30;8.60;;;;;;;17.19;100.00;101489.25;4991509;28;20434;-44
2022/06/30 03:14:34;;;;;;;7.80;7.10;;;;;;;17.24;100.00;101493.97;4991775;28;20953;-47
2022/06/30 03:17:01;;;;;;;7.87;7.23;;;;;;;17.27;100.00;101490.81;4991675;28;20785;-47
2022/06/30 03:19:30;;;;;;;7.73;7.03;;;;;;;17.29;100.00;101486.88;4991301;28;20434;-46
2022/06/30 03:21:58;;;;;;;7.63;7.07;;;;;;;17.31;100.00;101484.78;4991438;28;20480;-44
2022/06/30 03:24:26;;;;;;;9.10;7.20;;;;;;;17.35;100.00;101483.25;4991669;28;20434;-45
2022/06/30 03:26:53;;;;;;;7.37;6.73;;;;;;;17.41;100.00;101482.38;4991559;28;20781;-47
2022/06/30 03:29:21;;;;;;;7.33;6.70;;;;;;;17.73;100.00;101484.97;4991812;28;20528;-46
2022/06/30 03:31:48;;;;;;;8.00;6.33;;;;;;;18.31;100.00;101482.56;4985969;28;21007;-48
2022/06/30 03:34:16;;;;;;;7.03;6.33;;;;;;;18.77;100.00;101472.72;4980846;28;20849;-47
2022/06/30 03:36:46;;;;;;;6.90;6.30;;;;;;;18.93;100.00;101484.75;4991863;28;20461;-49
2022/06/30 03:39:13;;;;;;;6.27;5.80;;;;;;;18.82;99.90;101473.91;4992280;28;20430;-47
2022/06/30 03:41:41;;;;;;;5.53;5.10;;;;;;;18.77;99.82;101471.91;4984426;28;20473;-46
2022/06/30 03:44:09;;;;;;;7.03;6.50;;;;;;;18.65;99.46;101463.78;4984729;28;20758;-49
2022/06/30 03:46:36;;;;;;;6.90;5.60;;;;;;;18.64;100.00;101472.94;4991537;28;20462;-44
2022/06/30 03:49:04;;;;;;;7.90;6.77;;;;;;;18.60;99.92;101479.03;4992442;28;20438;-44
2022/06/30 03:51:32;;;;;;;7.37;6.03;;;;;;;18.60;100.00;101471.78;4991958;28;20791;-45
2022/06/30 03:54:01;;;;;;;6.23;5.83;;;;;;;18.59;100.00;101477.38;4992376;28;20436;-45
2022/06/30 03:56:28;;;;;;;6.77;6.33;;;;;;;18.67;100.00;101469.75;4992332;28;20457;-44
2022/06/30 03:58:56;;;;;;;7.60;6.00;;;;;;;18.81;100.00;101470.41;4992613;28;20520;-48
2022/06/30 04:01:23;;;;;;;7.70;6.80;;;;;;;18.88;100.00;101476.50;4991750;28;20939;-45
2022/06/30 04:03:51;;;;;;;6.03;5.63;;;;;;;18.96;100.00;101481.56;4992423;28;20468;-48
2022/06/30 04:06:19;;;;;;;8.40;6.87;;;;;;;18.97;99.61;101477.78;4992212;28;20449;-49
2022/06/30 04:08:46;;;;;;;7.13;6.50;;;;;;;18.97;99.86;101483.19;4992268;28;20440;-48
2022/06/30 04:11:15;;;;;;;6.93;6.30;;;;;;;18.97;99.80;101477.78;4991574;28;20465;-49
2022/06/30 04:13:43;;;;;;;6.70;6.20;;;;;;;19.01;99.77;101478.97;4992637;28;20773;-47
2022/06/30 04:16:11;;;;;;;6.10;5.80;;;;;;;19.05;99.93;101471.22;4991931;28;20445;-45
2022/06/30 04:18:39;;;;;;;7.07;6.40;;;;;;;19.16;100.00;101462.28;4992157;28;20426;-44
2022/06/30 04:21:07;;;;;;;9.83;6.03;;;;;;;19.21;99.29;101463.22;4991367;28;20477;-46
2022/06/30 04:23:36;;;;;;;7.30;6.57;;;;;;;19.18;99.19;101461.00;4992245;28;20449;-46
2022/06/30 04:26:03;;;;;;;7.10;5.77;;;;;;;19.18;99.52;101450.19;4992075;28;20433;-44
2022/06/30 04:28:32;;;;;;;6.43;5.83;;;;;;;19.23;99.61;101447.59;4992080;28;20437;-48
2022/06/30 04:33:45;;;;;;;6.77;5.30;;;;;;;20.99;99.23;101446.66;4974310;28;20935;-47
2022/06/30 04:36:13;;;;;;;6.40;5.80;;;;;;;22.05;87.55;101438.03;4989278;28;20622;-51
2022/06/30 04:38:41;;;;;;;8.00;5.93;;;;;;;23.19;84.16;101434.13;4992108;28;20823;-49
2022/06/30 04:41:26;;;;;;;5.53;5.03;;;;;;;23.84;77.51;101434.44;4991309;28;20469;-47
2022/06/30 04:43:56;;;;;;;5.27;4.70;;;;;;;24.54;74.23;101428.34;4991971;28;20434;-47
2022/06/30 04:46:24;;;;;;;5.07;4.60;;;;;;;25.33;70.49;101431.25;4992097;28;20464;-46
2022/06/30 04:48:53;;;;;;;4.93;4.53;;;;;;;26.11;68.56;101436.09;4992335;28;20437;-47
2022/06/30 04:51:21;;;;;;;5.07;4.67;;;;;;;26.65;65.47;101438.72;4991594;28;20827;-49
2022/06/30 04:53:49;;;;;;;5.20;4.80;;;;;;;26.97;62.16;101433.53;4995770;28;20434;-49
2022/06/30 04:56:17;;;;;;;4.80;4.40;;;;;;;27.33;60.82;101442.19;4995450;28;20799;-48
2022/06/30 04:58:46;;;;;;;4.17;3.80;;;;;;;27.80;60.71;101441.38;4995807;28;20433;-49
2022/06/30 05:01:15;;;;;;;5.53;4.43;;;;;;;28.26;58.11;101438.81;4994816;28;20472;-46
2022/06/30 05:03:43;;;;;;;5.30;4.90;;;;;;;28.69;59.18;101440.34;4995624;28;20524;-47
2022/06/30 05:06:11;;;;;;;4.57;4.07;;;;;;;29.20;57.48;101437.50;4995438;28;20469;-48
2022/06/30 05:08:38;;;;;;;5.80;5.30;;;;;;;29.59;55.77;101439.75;4995361;28;20433;-50
2022/06/30 05:11:06;;;;;;;5.83;4.40;;;;;;;29.67;49.61;101433.53;4994737;28;20993;-50
2022/06/30 05:13:34;;;;;;;5.50;4.97;;;;;;;29.15;49.02;101445.84;4995378;28;20206;-50
2022/06/30 05:16:03;;;;;;;5.47;4.70;;;;;;;29.39;51.65;101446.47;4995342;28;20205;-48
2022/06/30 05:18:36;;;;;;;5.13;4.63;;;;;;;30.20;52.54;101444.72;4995275;28;20209;-50
2022/06/30 05:21:05;;;;;;;4.70;4.10;;;;;;;30.06;50.68;101447.53;4994535;28;20232;-48
2022/06/30 05:23:32;;;;;;;4.87;4.57;;;;;;;28.94;51.63;101450.88;4995278;28;20226;-47
2022/06/30 05:28:45;;;;;;;5.17;4.77;;;;;;;28.94;51.84;101436.34;4995296;28;20433;-46
2022/06/30 05:31:19;;;;;;;4.70;4.30;;;;;;;29.28;50.09;101431.31;4993481;28;20842;-49
2022/06/30 05:33:48;;;;;;;5.33;4.13;;;;;;;29.94;50.63;101436.25;4983350;28;20430;-46
2022/06/30 05:36:15;;;;;;;6.70;4.27;;;;;;;30.12;48.45;101443.56;4992740;28;20198;-45
2022/06/30 05:38:43;;;;;;;6.17;4.27;;;;;;;30.39;45.65;101437.16;4995141;28;20205;-47
2022/06/30 05:41:11;;;;;;;4.10;3.80;;;;;;;30.07;47.10;101440.94;4994273;28;20230;-47
2022/06/30 05:43:44;;;;;;;4.73;3.43;;;;;;;30.30;47.26;101443.69;4994915;28;20222;-47
2022/06/30 05:46:12;;;;;;;3.83;3.63;;;;;;;29.51;47.64;101433.03;4994617;28;20199;-46
2022/06/30 05:48:40;;;;;;;4.83;4.40;;;;;;;28.67;48.80;101436.28;4994954;28;20256;-49
2022/06/30 05:51:14;;;;;;;4.30;4.00;;;;;;;28.03;52.36;101441.31;4994185;28;20272;-48
2022/06/30 05:53:42;;;;;;;5.10;4.70;;;;;;;27.77;51.43;101445.53;4994847;28;20190;-47
2022/06/30 05:56:09;;;;;;;4.57;4.27;;;;;;;26.97;54.01;101438.22;4994487;28;20434;-46
2022/06/30 05:58:37;;;;;;;4.60;4.30;;;;;;;26.94;54.42;101443.13;4994520;28;20938;-46
2022/06/30 06:01:04;;;;;;;5.27;4.80;;;;;;;26.40;55.39;101443.28;4993789;28;21016;-45
2022/06/30 06:03:32;;;;;;;5.13;4.80;;;;;;;25.98;56.21;101453.13;4994285;28;20478;-48
2022/06/30 06:06:00;;;;;;;4.77;4.40;;;;;;;25.92;57.39;101449.63;4994600;28;20437;-50
2022/06/30 06:08:29;;;;;;;6.33;5.53;;;;;;;25.91;58.84;101453.44;4994415;28;20450;-46
2022/06/30 06:10:56;;;;;;;4.90;4.60;;;;;;;26.82;55.68;101447.38;4993616;28;21044;-48
2022/06/30 06:13:24;;;;;;;5.20;4.00;;;;;;;27.68;53.13;101452.78;4994210;28;20939;-46
2022/06/30 06:15:51;;;;;;;4.67;4.20;;;;;;;28.31;53.02;101446.97;4994473;28;20442;-46
2022/06/30 06:18:20;;;;;;;4.00;3.70;;;;;;;28.63;50.31;101460.72;4994057;28;20486;-46
2022/06/30 06:20:47;;;;;;;4.27;3.97;;;;;;;28.74;48.25;101455.91;4993647;28;20469;-45
2022/06/30 06:23:36;;;;;;;3.77;3.57;;;;;;;29.39;48.14;101453.91;4994015;28;20480;-50
2022/06/30 06:26:04;;;;;;;6.73;3.73;;;;;;;29.84;47.87;101461.22;4994166;28;20198;-45
2022/06/30 06:31:17;;;;;;;4.83;4.40;;;;;;;30.21;44.53;101454.63;4992562;28;20230;-45
2022/06/30 06:33:46;;;;;;;5.37;3.63;;;;;;;30.43;44.57;101445.63;4982392;28;20282;-43
2022/06/30 06:36:14;;;;;;;5.07;3.47;;;;;;;30.29;44.43;101447.56;4991201;28;20195;-53
2022/06/30 06:38:43;;;;;;;3.90;3.60;;;;;;;30.53;44.57;101443.41;4993981;28;20238;-48
2022/06/30 06:41:10;;;;;;;3.50;3.30;;;;;;;30.39;42.79;101447.34;4993126;28;20234;-50
2022/06/30 06:43:38;;;;;;;3.20;2.87;;;;;;;30.57;44.54;101454.63;4993574;28;20727;-45
2022/06/30 06:46:06;;;;;;;4.03;3.78;;;;;;;30.41;43.75;101458.84;4993705;28;20264;-45
2022/06/30 06:48:33;;;;;;;3.97;3.67;;;;;;;30.58;43.20;101446.06;4993621;28;20198;-45
2022/06/30 06:51:01;;;;;;;3.90;3.60;;;;;;;30.33;42.02;101451.31;4993023;28;20229;-48
2022/06/30 06:53:29;;;;;;;4.00;3.60;;;;;;;30.75;42.13;101447.28;4993737;28;20205;-45
2022/06/30 06:55:58;;;;;;;3.75;3.45;;;;;;;30.65;42.30;101446.41;4993592;28;20218;-50
2022/06/30 06:58:26;;;;;;;4.70;3.27;;;;;;;30.67;42.96;101433.13;4993441;28;20592;-50
2022/06/30 07:00:54;;;;;;;3.23;2.90;;;;;;;31.02;43.35;101444.38;4992707;28;20222;-46
2022/06/30 07:03:22;;;;;;;3.95;3.35;;;;;;;31.69;43.00;101445.78;4993164;28;20214;-45
2022/06/30 07:05:50;;;;;;;3.03;2.83;;;;;;;31.82;41.70;101441.28;4993565;28;20198;-47
2022/06/30 07:08:17;;;;;;;4.07;3.78;;;;;;;31.59;41.12;101450.81;4993359;28;20218;-45
2022/06/30 07:10:45;;;;;;;4.13;2.83;;;;;;;31.62;41.61;101453.75;4992622;28;20225;-45
2022/06/30 07:13:14;;;;;;;3.92;3.10;;;;;;;31.36;40.57;101439.03;4993227;28;20194;-47
2022/06/30 07:15:41;;;;;;;4.00;3.70;;;;;;;31.27;42.07;101451.97;4992382;28;20647;-46
2022/06/30 07:18:09;;;;;;;3.80;3.42;;;;;;;31.52;40.46;101445.75;4992924;28;20875;-43
2022/06/30 07:20:37;;;;;;;3.17;2.67;;;;;;;31.81;41.16;101444.38;4992562;28;20309;-48
2022/06/30 07:23:04;;;;;;;2.83;2.60;;;;;;;31.08;41.35;101443.94;4993013;28;20218;-44
2022/06/30 07:25:52;;;;;;;3.15;2.95;;;;;;;31.47;42.37;101445.06;4993008;28;20209;-45
2022/06/30 07:28:21;;;;;;;3.28;2.97;;;;;;;31.44;41.95;101445.69;4992699;28;20218;-47
2022/06/30 07:31:10;;;;;;;9.23;3.78;;;;;;;31.82;40.66;101444.03;4992102;28;20226;-44
2022/06/30 07:33:38;;;;;;;4.43;3.45;;;;;;;31.83;40.83;101437.41;4985615;28;20199;-47
2022/06/30 07:36:05;;;;;;;3.35;2.90;;;;;;;31.86;40.92;101441.44;4992767;28;20198;-46
2022/06/30 07:38:34;;;;;;;4.80;3.28;;;;;;;30.37;41.01;101444.06;4992714;28;20206;-47
2022/06/30 07:41:01;;;;;;;4.78;3.10;;;;;;;29.83;42.88;101440.38;4992035;28;20230;-48
2022/06/30 07:43:30;;;;;;;4.30;2.78;;;;;;;29.57;42.93;101441.97;4992823;28;20226;-47
2022/06/30 07:45:58;;;;;;;6.40;3.10;;;;;;;29.26;44.05;101440.97;4993336;28;20198;-47
2022/06/30 07:48:26;;;;;;;3.77;3.47;;;;;;;28.49;45.21;101446.94;4992669;28;20215;-46
2022/06/30 07:50:53;;;;;;;4.43;3.67;;;;;;;28.05;46.70;101449.25;4992018;28;20232;-45
2022/06/30 07:53:21;;;;;;;3.93;3.50;;;;;;;27.89;46.80;101445.91;4992486;28;20615;-50
2022/06/30 07:55:49;;;;;;;3.73;3.40;;;;;;;27.27;48.39;101446.91;4992757;28;20438;-46
2022/06/30 07:58:17;;;;;;;6.33;3.67;;;;;;;27.77;48.12;101448.25;4992523;28;20453;-46
2022/06/30 08:00:46;;;;;;;3.60;3.30;;;;;;;28.52;46.66;101438.09;4991751;28;21009;-46
2022/06/30 08:03:14;;;;;;;4.10;3.33;;;;;;;29.23;45.44;101431.41;4992369;28;20214;-45
2022/06/30 08:05:41;;;;;;;4.00;3.60;;;;;;;29.64;43.34;101423.16;4992419;28;20202;-47
2022/06/30 08:08:09;;;;;;;4.40;4.10;;;;;;;28.98;44.81;101429.94;4992272;28;20460;-45
2022/06/30 08:10:37;;;;;;;3.40;3.20;;;;;;;28.93;45.86;101432.78;4991807;28;20222;-46
2022/06/30 08:13:04;;;;;;;5.13;3.70;;;;;;;28.67;45.72;101428.88;4992331;28;20198;-45
2022/06/30 08:15:32;;;;;;;5.90;3.70;;;;;;;28.71;45.57;101434.53;4992245;28;20575;-45
2022/06/30 08:18:03;;;;;;;4.20;3.93;;;;;;;28.12;46.23;101429.72;4992132;28;20226;-46
2022/06/30 08:20:31;;;;;;;3.73;3.37;;;;;;;27.74;47.63;101437.06;4991488;28;20552;-48
2022/06/30 08:22:59;;;;;;;3.70;3.50;;;;;;;27.65;47.45;101438.84;4992294;28;20434;-45
2022/06/30 08:25:27;;;;;;;3.37;3.17;;;;;;;27.38;48.81;101434.75;4992705;28;20460;-45
2022/06/30 08:27:54;;;;;;;3.77;3.53;;;;;;;27.82;48.61;101426.25;4996206;28;20471;-45
2022/06/30 08:30:23;;;;;;;3.60;3.30;;;;;;;27.50;48.68;101426.13;4995470;28;20465;-48
2022/06/30 08:32:50;;;;;;;4.73;3.60;;;;;;;27.29;49.45;101424.72;4988779;28;20433;-45
2022/06/30 08:35:20;;;;;;;3.97;3.60;;;;;;;27.15;50.75;101426.53;4988193;28;20437;-47
2022/06/30 08:38:07;;;;;;;4.03;3.73;;;;;;;26.86;50.81;101416.41;4996009;28;20458;-48
2022/06/30 08:43:25;;;;;;;4.40;4.00;;;;;;;26.50;52.87;101430.66;4995766;28;20480;-45
2022/06/30 08:45:53;;;;;;;7.60;3.83;;;;;;;26.81;52.64;101419.19;4996084;28;20436;-46
2022/06/30 08:48:21;;;;;;;4.50;4.10;;;;;;;26.55;51.92;101422.41;4995936;28;20459;-45
2022/06/30 08:50:58;;;;;;;3.90;3.70;;;;;;;26.91;51.51;101424.56;4995231;28;20469;-45
2022/06/30 08:53:32;;;;;;;4.00;3.67;;;;;;;26.99;52.06;101417.66;4995932;28;20433;-45
2022/06/30 08:56:00;;;;;;;4.60;3.33;;;;;;;27.15;51.68;101418.31;4995675;28;20867;-48
2022/06/30 08:58:28;;;;;;;3.73;3.43;;;;;;;27.41;50.34;101412.25;4995886;28;20453;-48
2022/06/30 09:00:56;;;;;;;4.30;3.90;;;;;;;27.66;50.59;101416.59;4995105;28;20465;-47
2022/06/30 09:03:24;;;;;;;4.47;4.07;;;;;;;27.50;50.46;101409.69;4995672;28;20437;-45
2022/06/30 09:05:53;;;;;;;4.20;3.90;;;;;;;27.62;50.71;101401.06;4995689;28;20443;-45
2022/06/30 09:08:21;;;;;;;4.33;3.97;;;;;;;27.07;51.24;101406.06;4995474;28;20453;-45
2022/06/30 09:10:52;;;;;;;4.10;3.77;;;;;;;26.98;52.30;101404.25;4994908;28;20461;-45
2022/06/30 09:13:20;;;;;;;4.70;3.67;;;;;;;27.15;52.06;101396.41;4995616;28;20509;-48
2022/06/30 09:15:49;;;;;;;5.50;4.20;;;;;;;27.36;52.12;101401.34;4995466;28;20803;-50
2022/06/30 09:18:24;;;;;;;4.00;3.80;;;;;;;27.30;52.51;101407.19;4995240;28;20461;-45
2022/06/30 09:20:53;;;;;;;5.70;3.57;;;;;;;26.80;52.96;101405.78;4994570;28;20469;-46
2022/06/30 09:23:26;;;;;;;4.70;4.30;;;;;;;26.90;54.91;101409.25;4995646;28;20437;-47
2022/06/30 09:25:56;;;;;;;4.60;4.20;;;;;;;27.21;52.84;101406.19;4995337;28;20437;-45
2022/06/30 09:28:41;;;;;;;4.10;3.80;;;;;;;26.97;52.93;101408.88;4995159;28;20552;-46
2022/06/30 09:31:34;;;;;;;4.00;3.70;;;;;;;27.14;53.53;101401.06;4992332;28;20488;-45
2022/06/30 09:34:16;;;;;;;3.73;3.43;;;;;;;27.41;51.99;101397.72;4983865;28;20454;-46
2022/06/30 09:36:46;;;;;;;3.70;3.40;;;;;;;27.64;50.85;101385.94;4975694;28;20545;-46
2022/06/30 09:39:16;;;;;;;4.00;3.80;;;;;;;27.89;49.04;101385.59;4975050;28;20847;-48
2022/06/30 09:41:46;;;;;;;3.90;3.33;;;;;;;28.00;49.83;101375.28;4975288;28;20462;-49
2022/06/30 09:44:22;;;;;;;3.70;3.50;;;;;;;27.93;50.00;101380.31;4975642;28;20474;-45
2022/06/30 09:46:56;;;;;;;4.43;4.00;;;;;;;27.86;50.05;101377.97;4975455;28;20450;-49
2022/06/30 09:49:31;;;;;;;3.80;3.50;;;;;;;27.97;50.43;101395.06;4975099;28;20434;-45
2022/06/30 09:52:02;;;;;;;4.53;3.97;;;;;;;27.51;49.95;101396.81;4975042;28;20426;-50
2022/06/30 09:54:33;;;;;;;6.20;4.27;;;;;;;27.22;52.02;101394.13;4975334;28;20423;-45
2022/06/30 09:57:03;;;;;;;4.30;4.10;;;;;;;26.99;53.23;101397.66;4975451;28;20447;-45
2022/06/30 09:59:31;;;;;;;4.17;3.97;;;;;;;26.51;55.00;101385.78;4974834;28;20430;-46
2022/06/30 10:01:59;;;;;;;4.13;3.90;;;;;;;26.54;54.16;101388.78;4975011;28;20434;-45
2022/06/30 10:04:27;;;;;;;4.10;3.90;;;;;;;26.44;54.41;101382.56;4975132;28;20478;-45
2022/06/30 10:06:55;;;;;;;5.67;4.33;;;;;;;26.01;56.77;101396.00;4975003;28;21190;-45
2022/06/30 10:09:30;;;;;;;4.17;3.87;;;;;;;25.69;56.40;101382.78;4974798;28;20770;-45
2022/06/30 10:11:58;;;;;;;4.43;4.10;;;;;;;25.68;56.80;101372.16;4974881;28;20440;-45
2022/06/30 10:14:29;;;;;;;4.23;3.97;;;;;;;25.74;56.30;101373.75;4974951;28;20457;-45
2022/06/30 10:16:56;;;;;;;3.87;3.50;;;;;;;25.72;56.01;101359.53;4974667;28;20462;-46
2022/06/30 10:19:24;;;;;;;4.63;4.23;;;;;;;25.54;56.78;101377.38;4974306;28;20443;-45
2022/06/30 10:21:52;;;;;;;4.30;4.00;;;;;;;25.81;56.22;101380.53;4974607;28;20817;-46
2022/06/30 10:24:21;;;;;;;4.07;3.77;;;;;;;25.96;55.70;101378.78;4974721;28;20478;-44
2022/06/30 10:29:40;;;;;;;4.43;4.20;;;;;;;25.81;55.61;101372.31;4974068;28;20439;-46
2022/06/30 10:32:14;;;;;;;4.20;3.90;;;;;;;25.90;54.09;101371.72;4974335;28;20928;-46
2022/06/30 10:34:51;;;;;;;3.80;3.50;;;;;;;25.85;54.15;101380.78;4986056;28;20426;-44
2022/06/30 10:37:27;;;;;;;3.80;3.00;;;;;;;25.67;54.12;101370.50;4993956;28;20471;-48
2022/06/30 10:39:59;;;;;;;3.87;3.30;;;;;;;25.67;53.03;101371.31;4993382;28;20469;-49
2022/06/30 10:42:50;;;;;;;3.63;3.43;;;;;;;25.67;52.75;101373.22;4993961;28;20488;-44
2022/06/30 10:45:54;;;;;;;3.57;3.13;;;;;;;25.64;52.83;101371.88;4990903;28;20485;-49
2022/06/30 10:48:22;;;;;;;3.50;3.30;;;;;;;25.43;53.43;101366.75;4993545;28;20501;-45
2022/06/30 10:50:52;;;;;;;4.87;4.40;;;;;;;25.61;53.80;101361.53;4992176;28;20882;-47
2022/06/30 10:53:51;;;;;;;4.40;3.43;;;;;;;25.55;50.82;101356.34;4993724;28;20437;-47
2022/06/30 10:56:20;;;;;;;3.90;3.70;;;;;;;25.73;50.43;101361.19;4993483;28;20440;-46
2022/06/30 10:59:05;;;;;;;3.23;3.03;;;;;;;25.66;51.85;101353.28;4993345;28;20459;-47
2022/06/30 11:01:33;;;;;;;3.63;3.47;;;;;;;25.57;51.72;101348.69;4992746;28;20484;-45
2022/06/30 11:04:02;;;;;;;4.37;3.70;;;;;;;25.66;51.32;101356.03;4993503;28;20444;-48
2022/06/30 11:06:56;;;;;;;3.23;3.00;;;;;;;25.54;47.86;101354.72;4993296;28;20535;-47
2022/06/30 11:10:03;;;;;;;5.70;3.60;;;;;;;25.71;47.77;101361.47;4993534;28;20438;-46
2022/06/30 11:13:09;;;;;;;3.47;3.10;;;;;;;25.68;48.75;101347.56;5109513;27;20517;-48
2022/06/30 11:15:54;;;;;;;3.20;3.00;;;;;;;25.75;47.00;101354.31;5045535;28;20908;-46
2022/06/30 11:18:23;;;;;;;3.10;2.90;;;;;;;25.59;46.88;101344.59;5045692;28;20450;-51
2022/06/30 11:20:52;;;;;;;3.87;3.43;;;;;;;25.66;47.00;101336.91;5033047;27;20463;-46
2022/06/30 11:23:21;;;;;;;3.10;2.90;;;;;;;25.77;46.98;101337.66;5025561;28;20964;-46
2022/06/30 11:28:39;;;;;;;3.33;3.13;;;;;;;25.78;48.55;101331.09;5025747;28;20439;-48
2022/06/30 11:31:25;;;;;;;5.83;4.13;;;;;;;25.98;47.57;101327.41;5024881;28;20494;-47
2022/06/30 11:33:55;;;;;;;3.33;3.23;;;;;;;25.85;47.11;101321.50;5039867;28;20456;-47
2022/06/30 11:36:23;;;;;;;3.03;2.90;;;;;;;25.80;47.48;101324.25;5045053;28;20429;-48
2022/06/30 11:38:56;;;;;;;3.40;3.23;;;;;;;25.96;48.85;101330.41;5045375;28;20435;-47
2022/06/30 11:44:11;;;;;;;3.50;3.30;;;;;;;25.80;48.50;101320.72;5045110;28;20427;-53
2022/06/30 11:46:50;;;;;;;4.07;3.87;;;;;;;25.91;48.42;101332.38;5044924;28;20462;-45
2022/06/30 11:49:18;;;;;;;3.70;3.43;;;;;;;25.93;48.94;101330.97;5045238;28;20442;-45
2022/06/30 11:51:46;;;;;;;3.50;3.37;;;;;;;25.99;49.04;101331.75;5044102;28;20606;-46
2022/06/30 11:54:15;;;;;;;4.30;3.50;;;;;;;26.06;48.24;101324.88;5045037;28;20431;-46
2022/06/30 11:56:44;;;;;;;3.27;3.07;;;;;;;26.17;48.00;101331.09;5044824;28;20461;-52
2022/06/30 11:59:13;;;;;;;3.67;3.57;;;;;;;26.15;47.88;101328.66;5044560;28;20431;-47